createdAt,value
2018-12-09T00:00:33.567Z,94479.79
2018-12-09T00:01:36.099Z,94466.67
2018-12-09T00:02:38.551Z,94463.52
2018-12-09T00:03:40.975Z,94463.73
2018-12-09T00:04:43.415Z,94466.70
2018-12-09T00:05:45.859Z,94463.86
2018-12-09T00:06:48.728Z,94472.13
2018-12-09T00:07:51.174Z,94460.89
2018-12-09T00:08:53.618Z,94468.63
2018-12-09T00:09:56.051Z,94479.99
2018-12-09T00:10:58.523Z,94490.24
2018-12-09T00:12:01.169Z,94463.67
2018-12-09T00:13:03.606Z,94449.99
2018-12-09T00:14:06.035Z,94447.80
2018-12-09T00:15:08.617Z,94457.94
2018-12-09T00:16:11.086Z,94440.76
2018-12-09T00:17:13.515Z,94436.47
2018-12-09T00:18:15.946Z,94458.95
2018-12-09T00:19:18.390Z,94437.36
2018-12-09T00:20:20.818Z,94425.34
2018-12-09T00:21:23.348Z,94422.17
2018-12-09T00:22:25.815Z,94470.20
2018-12-09T00:23:28.276Z,94434.95
2018-12-09T00:24:30.722Z,94414.56
2018-12-09T00:25:33.168Z,94417.00
2018-12-09T00:26:35.619Z,94414.37
2018-12-09T00:27:38.134Z,94419.00
2018-12-09T00:28:40.642Z,94388.81
2018-12-09T00:29:43.108Z,94395.10
2018-12-09T00:30:45.543Z,94409.75
2018-12-09T00:31:48.000Z,94388.33
2018-12-09T00:32:50.465Z,94376.90
2018-12-09T00:33:55.910Z,94397.11
2018-12-09T00:34:58.384Z,94374.27
2018-12-09T00:36:01.051Z,94395.26
2018-12-09T00:37:03.587Z,94393.82
2018-12-09T00:38:06.099Z,94395.31
2018-12-09T00:39:08.531Z,94379.80
2018-12-09T00:40:10.969Z,94392.08
2018-12-09T00:41:13.508Z,94389.23
2018-12-09T00:42:15.986Z,94387.36
2018-12-09T00:43:18.449Z,94377.91
2018-12-09T00:44:20.895Z,94374.24
2018-12-09T00:45:23.336Z,94376.90
2018-12-09T00:46:25.771Z,94353.60
2018-12-09T00:47:28.258Z,94355.41
2018-12-09T00:48:30.707Z,94349.05
2018-12-09T00:49:33.156Z,94335.80
2018-12-09T00:50:35.593Z,94335.58
2018-12-09T00:51:38.036Z,94322.16
2018-12-09T00:52:40.470Z,94331.18
2018-12-09T00:53:43.005Z,94318.81
2018-12-09T00:54:45.474Z,94325.03
2018-12-09T00:55:47.899Z,94336.58
2018-12-09T00:56:50.335Z,94328.68
2018-12-09T00:57:52.821Z,94355.70
2018-12-09T00:58:55.346Z,94324.06
2018-12-09T00:59:57.785Z,94324.75
2018-12-09T01:01:00.272Z,94324.22
2018-12-09T01:02:04.705Z,94338.02
2018-12-09T01:03:07.161Z,94336.33
2018-12-09T01:04:09.620Z,94331.89
2018-12-09T01:05:12.232Z,94329.42
2018-12-09T01:06:14.662Z,94341.80
2018-12-09T01:07:17.115Z,94335.20
2018-12-09T01:08:19.591Z,94334.89
2018-12-09T01:09:22.043Z,94336.55
2018-12-09T01:10:24.485Z,94382.88
2018-12-09T01:11:27.002Z,94336.20
2018-12-09T01:12:29.447Z,94324.27
2018-12-09T01:13:31.914Z,94319.85
2018-12-09T01:14:34.372Z,94327.38
2018-12-09T01:15:36.821Z,94335.78
2018-12-09T01:16:39.277Z,94340.00
2018-12-09T01:17:41.800Z,94321.01
2018-12-09T01:18:44.254Z,94317.79
2018-12-09T01:19:46.699Z,94311.48
2018-12-09T01:20:49.228Z,94295.45
2018-12-09T01:21:51.655Z,94301.19
2018-12-09T01:22:54.084Z,94305.13
2018-12-09T01:23:56.528Z,94305.84
2018-12-09T01:24:58.998Z,94317.58
2018-12-09T01:26:01.438Z,94297.89
2018-12-09T01:27:03.891Z,94298.64
2018-12-09T01:28:06.355Z,94299.95
2018-12-09T01:29:08.824Z,94303.70
2018-12-09T01:30:11.282Z,94297.67
2018-12-09T01:31:13.727Z,94293.28
2018-12-09T01:32:16.272Z,94292.08
2018-12-09T01:33:18.718Z,94275.24
2018-12-09T01:34:21.280Z,94287.20
2018-12-09T01:35:23.775Z,94295.72
2018-12-09T01:36:26.207Z,94301.42
2018-12-09T01:37:28.670Z,94277.72
2018-12-09T01:38:31.107Z,94292.01
2018-12-09T01:39:33.683Z,94304.16
2018-12-09T01:40:41.965Z,94286.08
2018-12-09T01:41:44.829Z,94286.64
2018-12-09T01:42:47.301Z,94297.48
2018-12-09T01:43:49.742Z,94293.48
2018-12-09T01:44:52.193Z,94300.22
2018-12-09T01:45:54.647Z,94288.34
2018-12-09T01:46:57.092Z,94299.43
2018-12-09T01:47:59.527Z,94275.61
2018-12-09T01:49:01.959Z,94282.41
2018-12-09T01:50:05.797Z,94292.16
2018-12-09T01:51:08.340Z,94292.91
2018-12-09T01:52:10.778Z,94272.66
2018-12-09T01:53:25.191Z,94304.20
2018-12-09T01:54:27.623Z,94317.63
2018-12-09T01:55:30.080Z,94289.72
2018-12-09T01:56:32.541Z,94291.71
2018-12-09T01:57:34.979Z,94295.61
2018-12-09T01:58:37.519Z,94283.23
2018-12-09T01:59:39.970Z,94289.95
2018-12-09T02:00:42.511Z,94282.94
2018-12-09T02:01:45.460Z,94291.67
2018-12-09T02:02:47.896Z,94279.29
2018-12-09T02:03:50.340Z,94280.75
2018-12-09T02:04:52.783Z,94282.74
2018-12-09T02:05:56.336Z,94285.85
2018-12-09T02:06:58.785Z,94292.01
2018-12-09T02:08:01.229Z,94273.25
2018-12-09T02:09:05.644Z,94291.31
2018-12-09T02:10:08.173Z,94288.77
2018-12-09T02:11:10.638Z,94272.45
2018-12-09T02:12:13.084Z,94278.23
2018-12-09T02:13:15.561Z,94275.98
2018-12-09T02:14:18.000Z,94269.66
2018-12-09T02:15:20.439Z,94281.82
2018-12-09T02:16:23.000Z,94268.45
2018-12-09T02:17:25.628Z,94285.73
2018-12-09T02:18:28.479Z,94277.30
2018-12-09T02:19:30.920Z,94275.04
2018-12-09T02:20:33.379Z,94283.95
2018-12-09T02:21:35.844Z,94271.39
2018-12-09T02:22:38.311Z,94264.83
2018-12-09T02:23:40.803Z,94270.73
2018-12-09T02:24:43.246Z,94268.29
2018-12-09T02:25:45.720Z,94269.41
2018-12-09T02:26:48.178Z,94256.95
2018-12-09T02:27:50.623Z,94276.53
2018-12-09T02:28:53.059Z,94270.30
2018-12-09T02:29:55.515Z,94267.95
2018-12-09T02:30:58.155Z,94255.70
2018-12-09T02:32:00.619Z,94266.20
2018-12-09T02:33:03.090Z,94270.70
2018-12-09T02:34:05.965Z,94262.56
2018-12-09T02:35:08.813Z,94264.10
2018-12-09T02:36:11.328Z,94248.84
2018-12-09T02:37:13.796Z,94254.61
2018-12-09T02:38:16.271Z,94251.34
2018-12-09T02:39:18.817Z,94280.41
2018-12-09T02:40:21.264Z,94231.98
2018-12-09T02:41:23.726Z,94289.02
2018-12-09T02:42:26.288Z,94234.10
2018-12-09T02:43:28.741Z,94244.67
2018-12-09T02:44:31.187Z,94244.00
2018-12-09T02:45:34.123Z,94233.09
2018-12-09T02:46:36.556Z,94248.72
2018-12-09T02:47:39.013Z,94254.61
2018-12-09T02:48:41.449Z,94263.05
2018-12-09T02:49:43.888Z,94240.81
2018-12-09T02:50:46.551Z,94233.23
2018-12-09T02:51:49.416Z,94256.57
2018-12-09T02:52:51.889Z,94245.09
2018-12-09T02:53:54.423Z,94240.36
2018-12-09T02:54:56.967Z,94226.26
2018-12-09T02:55:59.528Z,94233.39
2018-12-09T02:57:01.968Z,94229.56
2018-12-09T02:58:04.544Z,94231.86
2018-12-09T02:59:07.021Z,94212.36
2018-12-09T03:00:09.546Z,94222.18
2018-12-09T03:01:12.065Z,94234.89
2018-12-09T03:02:14.502Z,94238.27
2018-12-09T03:03:16.979Z,94239.80
2018-12-09T03:04:19.447Z,94248.05
2018-12-09T03:05:21.900Z,94212.47
2018-12-09T03:06:24.335Z,94211.48
2018-12-09T03:07:27.190Z,94216.28
2018-12-09T03:08:29.704Z,94233.73
2018-12-09T03:09:32.147Z,94225.19
2018-12-09T03:10:34.577Z,94234.75
2018-12-09T03:11:37.119Z,94223.39
2018-12-09T03:12:41.418Z,94218.14
2018-12-09T03:13:44.032Z,94206.45
2018-12-09T03:14:46.486Z,94211.20
2018-12-09T03:15:48.927Z,94210.91
2018-12-09T03:16:51.368Z,94201.34
2018-12-09T03:17:53.814Z,94195.57
2018-12-09T03:18:56.272Z,94197.45
2018-12-09T03:19:58.719Z,94191.86
2018-12-09T03:21:01.167Z,94188.30
2018-12-09T03:22:03.865Z,94187.86
2018-12-09T03:23:06.610Z,94186.42
2018-12-09T03:24:09.659Z,94194.22
2018-12-09T03:25:12.278Z,94185.45
2018-12-09T03:26:14.720Z,94179.88
2018-12-09T03:27:17.273Z,94183.88
2018-12-09T03:28:19.715Z,94179.63
2018-12-09T03:29:22.180Z,94176.52
2018-12-09T03:30:24.826Z,94172.14
2018-12-09T03:31:27.393Z,94160.71
2018-12-09T03:32:29.848Z,94157.11
2018-12-09T03:33:34.452Z,94159.73
2018-12-09T03:34:36.779Z,94159.55
2018-12-09T03:35:39.251Z,94159.73
2018-12-09T03:36:41.687Z,94156.70
2018-12-09T03:37:44.154Z,94154.72
2018-12-09T03:38:46.590Z,94150.22
2018-12-09T03:39:49.454Z,94151.12
2018-12-09T03:40:51.994Z,94150.62
2018-12-09T03:41:54.423Z,94140.80
2018-12-09T03:42:56.867Z,94141.30
2018-12-09T03:43:59.328Z,94133.31
2018-12-09T03:45:01.785Z,94145.34
2018-12-09T03:46:04.330Z,94136.38
2018-12-09T03:47:06.772Z,94131.75
2018-12-09T03:48:09.215Z,94126.42
2018-12-09T03:49:11.695Z,94115.82
2018-12-09T03:50:14.160Z,94127.40
2018-12-09T03:51:16.606Z,94124.77
2018-12-09T03:52:19.062Z,94110.47
2018-12-09T03:53:21.558Z,94118.83
2018-12-09T03:54:24.003Z,94105.86
2018-12-09T03:55:26.985Z,94100.67
2018-12-09T03:56:29.439Z,94103.73
2018-12-09T03:57:31.885Z,94109.47
2018-12-09T03:58:34.332Z,94094.45
2018-12-09T03:59:36.802Z,94082.54
2018-12-09T04:00:39.360Z,94092.80
2018-12-09T04:01:41.900Z,94086.58
2018-12-09T04:02:44.349Z,94076.75
2018-12-09T04:03:46.807Z,94084.29
2018-12-09T04:04:49.359Z,94078.91
2018-12-09T04:05:51.807Z,94082.33
2018-12-09T04:06:54.254Z,94085.39
2018-12-09T04:07:56.696Z,94078.16
2018-12-09T04:08:59.143Z,94082.59
2018-12-09T04:10:02.011Z,94083.03
2018-12-09T04:11:04.567Z,94075.00
2018-12-09T04:12:07.016Z,94081.80
2018-12-09T04:13:09.538Z,94086.19
2018-12-09T04:14:11.981Z,94099.48
2018-12-09T04:15:14.523Z,94094.01
2018-12-09T04:16:16.976Z,94071.55
2018-12-09T04:17:19.423Z,94075.98
2018-12-09T04:18:21.880Z,94092.80
2018-12-09T04:19:24.311Z,94091.54
2018-12-09T04:20:26.758Z,94095.99
2018-12-09T04:21:29.216Z,94071.86
2018-12-09T04:22:31.679Z,94076.95
2018-12-09T04:23:34.120Z,94082.41
2018-12-09T04:24:36.577Z,94085.36
2018-12-09T04:25:39.531Z,94083.64
2018-12-09T04:26:41.993Z,94080.25
2018-12-09T04:27:44.452Z,94092.52
2018-12-09T04:28:46.993Z,94083.64
2018-12-09T04:29:49.447Z,94098.59
2018-12-09T04:30:51.877Z,94078.22
2018-12-09T04:31:54.443Z,94094.66
2018-12-09T04:32:56.883Z,94109.27
2018-12-09T04:33:59.313Z,94092.20
2018-12-09T04:35:01.773Z,94086.95
2018-12-09T04:36:04.218Z,94115.70
2018-12-09T04:37:06.667Z,94120.51
2018-12-09T04:38:09.115Z,94125.32
2018-12-09T04:39:11.561Z,94145.13
2018-12-09T04:40:14.428Z,94126.42
2018-12-09T04:41:17.325Z,94135.04
2018-12-09T04:42:19.774Z,94148.34
2018-12-09T04:43:22.323Z,94125.55
2018-12-09T04:44:24.795Z,94129.64
2018-12-09T04:45:27.324Z,94142.79
2018-12-09T04:46:29.775Z,94136.53
2018-12-09T04:47:32.235Z,94147.64
2018-12-09T04:48:34.730Z,94151.01
2018-12-09T04:49:37.188Z,94200.22
2018-12-09T04:50:39.643Z,94155.13
2018-12-09T04:51:53.101Z,94160.15
2018-12-09T04:52:55.643Z,94151.83
2018-12-09T04:53:58.192Z,94163.45
2018-12-09T04:55:01.331Z,94164.34
2018-12-09T04:56:03.907Z,94157.97
2018-12-09T04:57:06.394Z,94155.68
2018-12-09T04:58:08.842Z,94160.59
2018-12-09T04:59:18.604Z,94175.18
2018-12-09T05:00:33.100Z,94176.08
2018-12-09T05:01:35.708Z,94182.56
2018-12-09T05:02:38.215Z,94200.75
2018-12-09T05:03:40.987Z,94198.08
2018-12-09T05:04:43.458Z,94182.80
2018-12-09T05:05:45.969Z,94200.41
2018-12-09T05:06:48.450Z,94204.27
2018-12-09T05:07:50.913Z,94211.69
2018-12-09T05:08:53.377Z,94204.87
2018-12-09T05:09:55.971Z,94209.70
2018-12-09T05:10:58.500Z,94211.49
2018-12-09T05:12:00.956Z,94227.45
2018-12-09T05:13:03.415Z,94205.95
2018-12-09T05:14:05.941Z,94222.95
2018-12-09T05:15:08.563Z,94220.60
2018-12-09T05:16:11.112Z,94226.03
2018-12-09T05:17:13.542Z,94224.13
2018-12-09T05:18:16.342Z,94212.58
2018-12-09T05:19:19.366Z,94208.23
2018-12-09T05:20:22.163Z,94217.25
2018-12-09T05:21:24.644Z,94228.20
2018-12-09T05:22:27.091Z,94215.88
2018-12-09T05:23:29.588Z,94226.27
2018-12-09T05:24:32.076Z,94226.87
2018-12-09T05:25:34.532Z,94245.23
2018-12-09T05:26:36.997Z,94243.13
2018-12-09T05:27:39.569Z,94250.59
2018-12-09T05:28:42.079Z,94251.00
2018-12-09T05:29:44.533Z,94255.34
2018-12-09T05:30:46.983Z,94241.92
2018-12-09T05:31:49.439Z,94248.14
2018-12-09T05:32:51.912Z,94244.21
2018-12-09T05:33:55.119Z,94249.56
2018-12-09T05:34:57.598Z,94234.67
2018-12-09T05:36:00.064Z,94246.48
2018-12-09T05:37:02.551Z,94244.70
2018-12-09T05:38:05.004Z,94246.67
2018-12-09T05:39:07.535Z,94258.22
2018-12-09T05:40:11.919Z,94267.92
2018-12-09T05:41:14.579Z,94269.58
2018-12-09T05:42:17.073Z,94270.45
2018-12-09T05:43:19.545Z,94262.31
2018-12-09T05:44:21.991Z,94267.84
2018-12-09T05:45:24.452Z,94273.39
2018-12-09T05:46:27.005Z,94274.14
2018-12-09T05:47:29.499Z,94278.30
2018-12-09T05:48:32.255Z,94273.80
2018-12-09T05:49:35.024Z,94273.33
2018-12-09T05:50:37.517Z,94271.80
2018-12-09T05:51:40.019Z,94273.05
2018-12-09T05:52:42.509Z,94273.02
2018-12-09T05:53:44.950Z,94273.35
2018-12-09T05:54:47.413Z,94273.17
2018-12-09T05:55:49.900Z,94268.98
2018-12-09T05:56:52.391Z,94263.84
2018-12-09T05:57:54.971Z,94268.27
2018-12-09T05:58:58.052Z,94268.11
2018-12-09T06:00:00.983Z,94260.69
2018-12-09T06:01:03.452Z,94272.05
2018-12-09T06:02:17.888Z,94277.84
2018-12-09T06:03:21.203Z,94273.60
2018-12-09T06:04:23.647Z,94288.64
2018-12-09T06:05:26.107Z,94294.97
2018-12-09T06:06:28.583Z,94298.42
2018-12-09T06:07:31.454Z,94307.89
2018-12-09T06:08:33.929Z,94302.63
2018-12-09T06:09:36.363Z,94300.09
2018-12-09T06:10:38.803Z,94311.95
2018-12-09T06:11:41.261Z,94311.12
2018-12-09T06:12:43.744Z,94329.59
2018-12-09T06:13:46.735Z,94318.34
2018-12-09T06:14:49.173Z,94329.76
2018-12-09T06:15:51.636Z,94319.66
2018-12-09T06:16:54.478Z,94325.39
2018-12-09T06:17:56.992Z,94318.75
2018-12-09T06:18:59.460Z,94314.77
2018-12-09T06:20:01.907Z,94323.80
2018-12-09T06:21:04.383Z,94315.25
2018-12-09T06:22:07.698Z,94313.20
2018-12-09T06:23:10.163Z,94313.64
2018-12-09T06:24:12.642Z,94317.52
2018-12-09T06:25:15.474Z,94320.69
2018-12-09T06:26:17.907Z,94335.25
2018-12-09T06:27:20.911Z,94345.86
2018-12-09T06:28:23.722Z,94347.16
2018-12-09T06:29:26.187Z,94362.73
2018-12-09T06:30:28.759Z,94366.25
2018-12-09T06:31:31.219Z,94355.68
2018-12-09T06:32:33.719Z,94370.67
2018-12-09T06:33:36.183Z,94359.48
2018-12-09T06:34:38.645Z,94364.57
2018-12-09T06:35:41.095Z,94379.59
2018-12-09T06:36:43.539Z,94366.04
2018-12-09T06:37:46.514Z,94372.93
2018-12-09T06:38:48.952Z,94372.77
2018-12-09T06:39:51.389Z,94351.89
2018-12-09T06:40:53.840Z,94363.58
2018-12-09T06:41:56.319Z,94365.69
2018-12-09T06:42:58.771Z,94379.08
2018-12-09T06:44:01.408Z,94375.19
2018-12-09T06:45:04.179Z,94366.80
2018-12-09T06:46:06.647Z,94373.17
2018-12-09T06:47:09.078Z,94375.00
2018-12-09T06:48:11.531Z,94368.30
2018-12-09T06:49:14.028Z,94360.97
2018-12-09T06:50:16.471Z,94379.07
2018-12-09T06:51:18.918Z,94363.86
2018-12-09T06:52:21.769Z,94352.08
2018-12-09T06:53:24.246Z,94349.88
2018-12-09T06:54:26.729Z,94347.21
2018-12-09T06:55:29.162Z,94334.72
2018-12-09T06:56:31.607Z,94340.75
2018-12-09T06:57:34.060Z,94325.91
2018-12-09T06:58:36.528Z,94329.06
2018-12-09T06:59:38.991Z,94329.23
2018-12-09T07:00:41.431Z,94327.52
2018-12-09T07:01:43.960Z,94340.99
2018-12-09T07:02:46.399Z,94331.33
2018-12-09T07:03:48.863Z,94336.56
2018-12-09T07:04:51.315Z,94341.47
2018-12-09T07:05:54.187Z,94345.55
2018-12-09T07:06:56.711Z,94351.73
2018-12-09T07:07:59.231Z,94348.77
2018-12-09T07:09:01.846Z,94349.12
2018-12-09T07:10:06.187Z,94339.84
2018-12-09T07:11:08.638Z,94345.27
2018-12-09T07:12:11.074Z,94347.09
2018-12-09T07:13:13.616Z,94356.77
2018-12-09T07:14:16.073Z,94351.14
2018-12-09T07:15:18.511Z,94348.59
2018-12-09T07:16:20.960Z,94347.30
2018-12-09T07:17:23.419Z,94365.00
2018-12-09T07:18:25.853Z,94341.31
2018-12-09T07:19:28.312Z,94363.34
2018-12-09T07:20:31.128Z,94354.34
2018-12-09T07:21:33.562Z,94357.33
2018-12-09T07:22:36.012Z,94349.31
2018-12-09T07:23:38.654Z,94355.86
2018-12-09T07:24:41.122Z,94353.20
2018-12-09T07:25:43.559Z,94354.94
2018-12-09T07:26:45.993Z,94343.30
2018-12-09T07:27:48.440Z,94343.49
2018-12-09T07:28:51.015Z,94349.08
2018-12-09T07:29:53.637Z,94349.12
2018-12-09T07:30:56.074Z,94348.72
2018-12-09T07:31:58.503Z,94351.70
2018-12-09T07:33:00.949Z,94348.69
2018-12-09T07:34:03.795Z,94344.16
2018-12-09T07:35:07.238Z,94353.36
2018-12-09T07:36:09.707Z,94355.30
2018-12-09T07:37:12.141Z,94357.95
2018-12-09T07:38:14.585Z,94351.64
2018-12-09T07:39:17.056Z,94366.25
2018-12-09T07:40:19.532Z,94366.44
2018-12-09T07:41:21.983Z,94387.09
2018-12-09T07:42:24.410Z,94371.84
2018-12-09T07:43:26.883Z,94387.19
2018-12-09T07:44:29.586Z,94381.73
2018-12-09T07:45:32.043Z,94376.31
2018-12-09T07:46:34.515Z,94373.70
2018-12-09T07:47:36.956Z,94371.48
2018-12-09T07:48:39.824Z,94378.89
2018-12-09T07:49:42.305Z,94374.22
2018-12-09T07:50:44.774Z,94373.80
2018-12-09T07:51:47.248Z,94379.19
2018-12-09T07:52:49.722Z,94379.55
2018-12-09T07:53:52.212Z,94375.81
2018-12-09T07:54:54.648Z,94380.89
2018-12-09T07:55:57.107Z,94374.61
2018-12-09T07:56:59.635Z,94394.02
2018-12-09T07:58:02.062Z,94380.03
2018-12-09T07:59:06.762Z,94386.57
2018-12-09T08:00:09.183Z,94367.88
2018-12-09T08:01:11.623Z,94381.70
2018-12-09T08:02:14.055Z,94365.08
2018-12-09T08:03:16.487Z,94375.89
2018-12-09T08:04:18.912Z,94379.06
2018-12-09T08:05:21.334Z,94382.45
2018-12-09T08:06:23.879Z,94378.86
2018-12-09T08:07:26.304Z,94383.89
2018-12-09T08:08:28.743Z,94389.65
2018-12-09T08:09:31.263Z,94381.28
2018-12-09T08:10:33.693Z,94391.16
2018-12-09T08:11:36.139Z,94382.67
2018-12-09T08:12:38.575Z,94385.84
2018-12-09T08:13:41.020Z,94383.20
2018-12-09T08:14:43.467Z,94383.79
2018-12-09T08:15:45.910Z,94394.77
2018-12-09T08:16:48.354Z,94397.42
2018-12-09T08:17:50.804Z,94395.95
2018-12-09T08:18:53.239Z,94392.20
2018-12-09T08:19:55.761Z,94399.52
2018-12-09T08:20:58.198Z,94395.20
2018-12-09T08:22:00.714Z,94408.08
2018-12-09T08:23:03.225Z,94401.14
2018-12-09T08:24:05.650Z,94405.47
2018-12-09T08:25:08.176Z,94412.13
2018-12-09T08:26:10.710Z,94407.66
2018-12-09T08:27:13.273Z,94417.95
2018-12-09T08:28:15.732Z,94422.79
2018-12-09T08:29:18.173Z,94416.25
2018-12-09T08:30:20.625Z,94415.37
2018-12-09T08:31:23.067Z,94422.46
2018-12-09T08:32:25.507Z,94420.77
2018-12-09T08:33:28.035Z,94420.40
2018-12-09T08:34:30.462Z,94421.74
2018-12-09T08:35:32.911Z,94421.38
2018-12-09T08:36:35.346Z,94420.63
2018-12-09T08:37:37.812Z,94421.97
2018-12-09T08:38:40.265Z,94420.11
2018-12-09T08:39:42.706Z,94416.38
2018-12-09T08:40:45.200Z,94414.48
2018-12-09T08:41:47.663Z,94432.62
2018-12-09T08:42:50.132Z,94426.84
2018-12-09T08:43:52.575Z,94425.53
2018-12-09T08:44:55.003Z,94431.90
2018-12-09T08:45:57.440Z,94428.23
2018-12-09T08:46:59.972Z,94438.27
2018-12-09T08:48:02.443Z,94434.52
2018-12-09T08:49:04.898Z,94424.48
2018-12-09T08:50:07.338Z,94429.31
2018-12-09T08:51:10.290Z,94420.66
2018-12-09T08:52:13.053Z,94439.35
2018-12-09T08:53:15.504Z,94442.14
2018-12-09T08:54:18.045Z,94429.65
2018-12-09T08:55:20.665Z,94422.20
2018-12-09T08:56:23.134Z,94432.84
2018-12-09T08:57:25.610Z,94429.28
2018-12-09T08:58:28.058Z,94431.67
2018-12-09T08:59:30.767Z,94427.14
2018-12-09T09:00:33.241Z,94441.84
2018-12-09T09:01:36.419Z,94441.66
2018-12-09T09:02:38.858Z,94442.27
2018-12-09T09:03:41.502Z,94448.58
2018-12-09T09:04:43.946Z,94455.45
2018-12-09T09:05:46.396Z,94469.84
2018-12-09T09:06:48.831Z,94455.13
2018-12-09T09:07:51.257Z,94459.37
2018-12-09T09:08:53.701Z,94472.78
2018-12-09T09:09:56.151Z,94463.06
2018-12-09T09:10:58.595Z,94464.70
2018-12-09T09:12:01.055Z,94470.56
2018-12-09T09:13:03.546Z,94476.94
2018-12-09T09:14:06.011Z,94476.70
2018-12-09T09:15:08.467Z,94465.30
2018-12-09T09:16:10.925Z,94470.23
2018-12-09T09:17:13.384Z,94477.69
2018-12-09T09:18:15.950Z,94481.25
2018-12-09T09:19:18.497Z,94474.21
2018-12-09T09:20:21.011Z,94480.39
2018-12-09T09:21:23.660Z,94493.27
2018-12-09T09:22:26.093Z,94493.96
2018-12-09T09:23:29.379Z,94493.73
2018-12-09T09:24:31.831Z,94484.16
2018-12-09T09:25:34.291Z,94499.66
2018-12-09T09:26:36.741Z,94501.52
2018-12-09T09:27:39.228Z,94500.02
2018-12-09T09:28:42.973Z,94502.28
2018-12-09T09:29:45.704Z,94502.31
2018-12-09T09:30:48.160Z,94500.28
2018-12-09T09:31:50.636Z,94505.34
2018-12-09T09:32:53.086Z,94515.61
2018-12-09T09:33:55.542Z,94501.75
2018-12-09T09:34:57.986Z,94518.01
2018-12-09T09:36:00.456Z,94511.13
2018-12-09T09:37:02.921Z,94512.61
2018-12-09T09:38:05.417Z,94510.38
2018-12-09T09:39:07.929Z,94513.36
2018-12-09T09:40:10.397Z,94520.31
2018-12-09T09:41:12.936Z,94509.62
2018-12-09T09:42:15.436Z,94515.19
2018-12-09T09:43:17.876Z,94536.29
2018-12-09T09:44:20.628Z,94517.95
2018-12-09T09:45:23.114Z,94525.73
2018-12-09T09:46:25.593Z,94508.03
2018-12-09T09:47:28.027Z,94501.56
2018-12-09T09:48:30.463Z,94519.67
2018-12-09T09:49:33.034Z,94524.09
2018-12-09T09:50:35.484Z,94521.22
2018-12-09T09:51:37.981Z,94526.25
2018-12-09T09:52:40.431Z,94523.96
2018-12-09T09:53:42.884Z,94535.74
2018-12-09T09:54:45.318Z,94528.51
2018-12-09T09:55:47.792Z,94528.28
2018-12-09T09:56:50.257Z,94527.92
2018-12-09T09:57:52.828Z,94523.37
2018-12-09T09:58:55.302Z,94522.06
2018-12-09T09:59:57.771Z,94511.82
2018-12-09T10:01:00.239Z,94532.27
2018-12-09T10:02:03.256Z,94515.27
2018-12-09T10:03:05.780Z,94518.96
2018-12-09T10:04:08.235Z,94528.87
2018-12-09T10:05:10.779Z,94532.41
2018-12-09T10:06:13.238Z,94515.23
2018-12-09T10:07:15.701Z,94525.34
2018-12-09T10:08:18.148Z,94530.19
2018-12-09T10:09:20.571Z,94496.34
2018-12-09T10:10:23.019Z,94522.88
2018-12-09T10:11:25.471Z,94521.18
2018-12-09T10:12:27.939Z,94510.52
2018-12-09T10:13:30.381Z,94510.31
2018-12-09T10:14:32.824Z,94517.77
2018-12-09T10:15:35.257Z,94531.38
2018-12-09T10:16:37.720Z,94491.95
2018-12-09T10:17:40.167Z,94518.01
2018-12-09T10:18:42.639Z,94520.59
2018-12-09T10:19:45.123Z,94515.08
2018-12-09T10:20:47.586Z,94494.87
2018-12-09T10:21:50.048Z,94501.22
2018-12-09T10:22:52.563Z,94524.41
2018-12-09T10:23:54.997Z,94516.06
2018-12-09T10:24:57.431Z,94501.08
2018-12-09T10:25:59.863Z,94502.34
2018-12-09T10:27:02.324Z,94511.30
2018-12-09T10:28:04.766Z,94510.46
2018-12-09T10:29:07.212Z,94507.47
2018-12-09T10:30:09.696Z,94509.39
2018-12-09T10:31:12.128Z,94511.09
2018-12-09T10:32:14.599Z,94509.95
2018-12-09T10:33:17.124Z,94506.17
2018-12-09T10:34:19.566Z,94513.44
2018-12-09T10:35:22.140Z,94517.01
2018-12-09T10:36:24.571Z,94511.96
2018-12-09T10:37:27.019Z,94507.67
2018-12-09T10:38:29.463Z,94500.42
2018-12-09T10:39:31.895Z,94503.49
2018-12-09T10:40:34.360Z,94499.51
2018-12-09T10:41:36.934Z,94513.31
2018-12-09T10:42:39.379Z,94503.98
2018-12-09T10:43:41.822Z,94523.78
2018-12-09T10:44:44.250Z,94503.75
2018-12-09T10:45:46.675Z,94513.31
2018-12-09T10:46:49.132Z,94495.09
2018-12-09T10:47:51.578Z,94498.10
2018-12-09T10:48:54.046Z,94497.91
2018-12-09T10:49:56.498Z,94504.02
2018-12-09T10:50:58.924Z,94504.57
2018-12-09T10:52:01.395Z,94498.22
2018-12-09T10:53:03.882Z,94505.72
2018-12-09T10:54:06.407Z,94500.69
2018-12-09T10:55:08.873Z,94495.69
2018-12-09T10:56:11.651Z,94497.00
2018-12-09T10:57:14.089Z,94486.38
2018-12-09T10:58:16.555Z,94497.00
2018-12-09T10:59:19.022Z,94491.09
2018-12-09T11:01:56.936Z,94502.89
2018-12-09T11:02:59.482Z,94490.38
2018-12-09T11:04:02.226Z,94491.12
2018-12-09T11:05:05.255Z,94496.58
2018-12-09T11:06:07.697Z,94500.62
2018-12-09T11:07:10.128Z,94487.48
2018-12-09T11:08:12.619Z,94488.03
2018-12-09T11:09:15.100Z,94485.77
2018-12-09T11:10:17.539Z,94496.30
2018-12-09T11:11:20.002Z,94495.23
2018-12-09T11:12:22.649Z,94525.75
2018-12-09T11:13:25.122Z,94487.39
2018-12-09T11:14:27.575Z,94501.67
2018-12-09T11:15:30.064Z,94479.58
2018-12-09T11:16:32.505Z,94477.12
2018-12-09T11:17:34.951Z,94471.11
2018-12-09T11:18:37.390Z,94482.88
2018-12-09T11:19:39.846Z,94467.84
2018-12-09T11:20:42.311Z,94456.66
2018-12-09T11:21:44.761Z,94469.80
2018-12-09T11:22:47.203Z,94474.63
2018-12-09T11:23:49.636Z,94461.58
2018-12-09T11:24:52.118Z,94456.16
2018-12-09T11:25:54.578Z,94462.16
2018-12-09T11:26:57.043Z,94474.54
2018-12-09T11:27:59.480Z,94456.21
2018-12-09T11:29:01.929Z,94449.63
2018-12-09T11:30:05.756Z,94456.02
2018-12-09T11:31:08.209Z,94449.83
2018-12-09T11:32:10.652Z,94454.15
2018-12-09T11:33:13.555Z,94445.14
2018-12-09T11:34:15.992Z,94448.85
2018-12-09T11:35:18.441Z,94453.14
2018-12-09T11:36:20.902Z,94447.34
2018-12-09T11:37:23.346Z,94446.05
2018-12-09T11:38:25.779Z,94447.16
2018-12-09T11:39:28.247Z,94438.19
2018-12-09T11:40:30.695Z,94436.18
2018-12-09T11:41:33.167Z,94445.09
2018-12-09T11:42:35.744Z,94426.23
2018-12-09T11:43:38.209Z,94436.34
2018-12-09T11:44:42.331Z,94423.23
2018-12-09T11:45:44.784Z,94426.78
2018-12-09T11:46:47.209Z,94422.48
2018-12-09T11:47:49.733Z,94434.31
2018-12-09T11:48:52.181Z,94424.95
2018-12-09T11:49:54.697Z,94428.48
2018-12-09T11:50:57.172Z,94429.08
2018-12-09T11:51:59.620Z,94424.25
2018-12-09T11:53:02.076Z,94429.84
2018-12-09T11:54:04.526Z,94415.80
2018-12-09T11:55:07.065Z,94413.72
2018-12-09T11:56:09.531Z,94418.60
2018-12-09T11:57:12.359Z,94422.92
2018-12-09T11:58:14.804Z,94411.81
2018-12-09T11:59:17.255Z,94417.78
2018-12-09T12:00:19.689Z,94406.19
2018-12-09T12:01:22.187Z,94417.98
2018-12-09T12:02:24.949Z,94405.44
2018-12-09T12:03:27.388Z,94419.24
2018-12-09T12:04:29.861Z,94404.23
2018-12-09T12:05:32.301Z,94418.98
2018-12-09T12:06:34.750Z,94404.17
2018-12-09T12:07:37.311Z,94393.55
2018-12-09T12:08:39.793Z,94405.53
2018-12-09T12:09:42.225Z,94415.30
2018-12-09T12:10:44.668Z,94412.41
2018-12-09T12:11:47.115Z,94411.45
2018-12-09T12:12:49.579Z,94409.75
2018-12-09T12:13:52.009Z,94414.63
2018-12-09T12:14:54.449Z,94415.17
2018-12-09T12:15:56.885Z,94419.11
2018-12-09T12:16:59.394Z,94421.22